createdAt,value
2022-11-30T00:01:35.799Z,98623.78
2022-11-30T00:04:37.681Z,98629.47
2022-11-30T00:07:39.756Z,98632.31
2022-11-30T00:10:42.270Z,98626.00
2022-11-30T00:13:44.410Z,98636.75
2022-11-30T00:16:46.210Z,98633.06
2022-11-30T00:19:48.061Z,98633.00
2022-11-30T00:22:49.972Z,98638.66
2022-11-30T00:25:51.851Z,98638.25
2022-11-30T00:28:54.266Z,98636.41
2022-11-30T00:31:55.966Z,98639.91
2022-11-30T00:34:58.064Z,98637.09
2022-11-30T00:38:02.678Z,98638.09
2022-11-30T00:41:04.780Z,98639.63
2022-11-30T00:44:06.609Z,98641.25
2022-11-30T00:47:08.523Z,98638.94
2022-11-30T00:50:10.839Z,98636.16
2022-11-30T00:53:12.701Z,98630.53
2022-11-30T00:56:14.839Z,98637.75
2022-11-30T00:59:16.749Z,98630.16
2022-11-30T01:02:18.646Z,98637.38
2022-11-30T01:05:20.524Z,98636.72
2022-11-30T01:08:22.388Z,98631.88
2022-11-30T01:11:27.288Z,98631.41
2022-11-30T01:14:28.984Z,98632.38
2022-11-30T01:17:30.713Z,98635.56
2022-11-30T01:20:32.512Z,98640.44
2022-11-30T01:23:34.688Z,98635.19
2022-11-30T01:26:36.652Z,98640.44
2022-11-30T01:29:39.144Z,98639.44
2022-11-30T01:32:40.929Z,98639.44
2022-11-30T01:35:42.621Z,98656.50
2022-11-30T01:38:53.316Z,98646.03
2022-11-30T01:41:55.409Z,98649.25
2022-11-30T01:44:58.794Z,98654.16
2022-11-30T01:48:00.720Z,98655.94
2022-11-30T01:51:02.601Z,98653.13
2022-11-30T01:54:06.751Z,98648.75
2022-11-30T01:57:13.926Z,98648.06
2022-11-30T02:00:16.275Z,98649.28
2022-11-30T02:03:28.178Z,98648.06
2022-11-30T02:06:31.024Z,98651.91
2022-11-30T02:09:43.588Z,98650.16
2022-11-30T02:12:59.520Z,98651.69
2022-11-30T02:16:04.660Z,98657.06
2022-11-30T02:19:10.096Z,98653.84
2022-11-30T02:22:35.416Z,98653.97
2022-11-30T02:25:46.596Z,98640.59
2022-11-30T02:28:56.173Z,98646.00
2022-11-30T02:32:40.546Z,98646.84
2022-11-30T02:35:50.243Z,98629.75
2022-11-30T02:38:55.711Z,98634.03
2022-11-30T02:41:57.551Z,98635.81
2022-11-30T02:44:59.329Z,98634.06
2022-11-30T02:48:11.789Z,98634.41
2022-11-30T02:51:18.655Z,98637.75
2022-11-30T02:54:20.316Z,98631.97
2022-11-30T02:57:22.153Z,98626.09
2022-11-30T03:00:23.972Z,98631.97
2022-11-30T03:03:25.730Z,98631.19
2022-11-30T03:06:27.645Z,98627.31
2022-11-30T03:09:29.533Z,98634.03
2022-11-30T03:12:31.597Z,98634.56
2022-11-30T03:15:33.553Z,98635.59
2022-11-30T03:18:35.491Z,98636.28
2022-11-30T03:21:37.221Z,98640.63
2022-11-30T03:24:38.957Z,98642.91
2022-11-30T03:27:40.656Z,98645.50
2022-11-30T03:30:48.865Z,98646.28
2022-11-30T03:33:50.732Z,98652.22
2022-11-30T03:36:52.769Z,98649.50
2022-11-30T03:39:58.133Z,98654.53
2022-11-30T03:43:00.153Z,98663.81
2022-11-30T03:46:02.000Z,98656.78
2022-11-30T03:49:03.786Z,98660.06
2022-11-30T03:52:05.563Z,98664.28
2022-11-30T03:55:07.978Z,98660.69
2022-11-30T03:58:09.821Z,98659.00
2022-11-30T04:01:16.978Z,98649.03
2022-11-30T04:04:18.726Z,98652.69
2022-11-30T04:07:20.667Z,98657.88
2022-11-30T04:10:23.921Z,98653.63
2022-11-30T04:13:26.230Z,98653.81
2022-11-30T04:16:28.046Z,98652.97
2022-11-30T04:19:30.030Z,98651.16
2022-11-30T04:22:31.750Z,98646.00
2022-11-30T04:25:33.527Z,98644.09
2022-11-30T04:28:35.886Z,98639.81
2022-11-30T04:31:37.827Z,98643.91
2022-11-30T04:34:39.551Z,98649.94
2022-11-30T04:37:41.234Z,98644.69
2022-11-30T04:40:43.732Z,98641.97
2022-11-30T04:43:45.613Z,98644.28
2022-11-30T04:46:47.468Z,98645.06
2022-11-30T04:49:49.294Z,98630.44
2022-11-30T04:52:51.080Z,98620.44
2022-11-30T04:55:52.812Z,98630.13
2022-11-30T04:58:54.548Z,98623.44
2022-11-30T05:01:56.521Z,98632.75
2022-11-30T05:04:58.404Z,98636.03
2022-11-30T05:08:00.385Z,98638.75
2022-11-30T05:11:02.345Z,98647.97
2022-11-30T05:14:04.749Z,98644.09
2022-11-30T05:17:06.511Z,98636.22
2022-11-30T05:20:08.796Z,98650.03
2022-11-30T05:23:10.615Z,98653.53
2022-11-30T05:26:12.557Z,98650.81
2022-11-30T05:29:14.373Z,98657.69
2022-11-30T05:32:16.092Z,98648.50
2022-11-30T05:35:17.992Z,98648.88
2022-11-30T05:38:19.804Z,98639.66
2022-11-30T05:41:21.691Z,98638.09
2022-11-30T05:44:23.470Z,98648.28
2022-11-30T05:47:29.114Z,98645.38
2022-11-30T05:50:31.522Z,98651.91
2022-11-30T05:53:33.657Z,98650.97
2022-11-30T05:56:38.089Z,98653.78
2022-11-30T05:59:40.901Z,98659.63
2022-11-30T06:02:42.812Z,98668.91
2022-11-30T06:05:44.983Z,98669.81
2022-11-30T06:08:48.073Z,98670.66
2022-11-30T06:11:50.575Z,98675.56
2022-11-30T06:14:52.720Z,98669.44
2022-11-30T06:17:56.354Z,98674.53
2022-11-30T06:21:06.129Z,98671.81
2022-11-30T06:24:08.675Z,98661.34
2022-11-30T06:27:10.590Z,98673.22
2022-11-30T06:30:13.306Z,98669.59
2022-11-30T06:33:15.144Z,98666.00
2022-11-30T06:36:23.839Z,98662.38
2022-11-30T06:39:50.189Z,98664.16
2022-11-30T06:42:47.788Z,98663.16
2022-11-30T06:45:50.326Z,98662.38
2022-11-30T06:48:56.751Z,98679.34
2022-11-30T06:51:59.119Z,98684.00
2022-11-30T06:55:01.618Z,98683.59
2022-11-30T06:58:08.436Z,98685.97
2022-11-30T07:01:13.608Z,98683.59
2022-11-30T07:04:15.795Z,98689.38
2022-11-30T07:07:18.175Z,98684.91
2022-11-30T07:10:22.978Z,98698.69
2022-11-30T07:13:26.078Z,98696.72
2022-11-30T07:16:29.846Z,98700.56
2022-11-30T07:19:36.562Z,98692.53
2022-11-30T07:22:38.873Z,98698.41
2022-11-30T07:25:59.282Z,98700.78
2022-11-30T07:29:05.406Z,98693.66
2022-11-30T07:32:07.718Z,98684.09
2022-11-30T07:35:09.657Z,98696.88
2022-11-30T07:38:12.225Z,98690.09
2022-11-30T07:41:16.679Z,98691.72
2022-11-30T07:44:18.868Z,98687.56
2022-11-30T07:47:20.770Z,98699.94
2022-11-30T07:50:22.620Z,98696.19
2022-11-30T07:53:24.658Z,98697.97
2022-11-30T07:56:27.929Z,98698.50
2022-11-30T07:59:29.936Z,98702.66
2022-11-30T08:02:31.914Z,98700.78
2022-11-30T08:05:33.794Z,98698.00
2022-11-30T08:08:37.934Z,98693.91
2022-11-30T08:11:39.725Z,98702.09
2022-11-30T08:15:17.589Z,98704.38
2022-11-30T08:18:07.177Z,98703.03
2022-11-30T08:21:11.159Z,98707.47
2022-11-30T08:24:16.050Z,98706.25
2022-11-30T08:27:18.078Z,98709.53
2022-11-30T08:30:19.855Z,98712.06
2022-11-30T08:33:21.759Z,98713.72
2022-11-30T08:36:25.207Z,98711.53
2022-11-30T08:39:28.753Z,98721.63
2022-11-30T08:42:31.245Z,98711.13
2022-11-30T08:45:33.114Z,98711.72
2022-11-30T08:48:35.920Z,98708.81
2022-11-30T08:51:54.055Z,98700.22
2022-11-30T08:54:59.755Z,98709.19
2022-11-30T08:58:01.822Z,98705.97
2022-11-30T09:01:11.255Z,98710.31
2022-11-30T09:04:13.088Z,98704.69
2022-11-30T09:07:15.580Z,98707.28
2022-11-30T09:10:17.895Z,98712.75
2022-11-30T09:13:19.753Z,98720.22
2022-11-30T09:16:22.681Z,98720.38
2022-11-30T09:19:25.537Z,98718.56
2022-11-30T09:22:29.072Z,98723.66
2022-11-30T09:25:31.136Z,98711.31
2022-11-30T09:28:35.523Z,98705.28
2022-11-30T09:31:37.434Z,98713.50
2022-11-30T09:34:39.400Z,98707.56
2022-11-30T09:37:41.782Z,98710.38
2022-11-30T09:40:44.000Z,98701.78
2022-11-30T09:43:46.335Z,98695.09
2022-11-30T09:46:56.341Z,98702.25
2022-11-30T09:50:03.808Z,98702.38
2022-11-30T09:53:12.536Z,98706.84
2022-11-30T09:56:28.643Z,98708.28
2022-11-30T09:59:33.173Z,98693.47
2022-11-30T10:02:41.226Z,98687.47
2022-11-30T10:06:04.021Z,98689.81
2022-11-30T10:09:29.361Z,98684.94
2022-11-30T10:12:40.297Z,98694.63
2022-11-30T10:15:57.861Z,98682.06
2022-11-30T10:19:02.949Z,98678.19
2022-11-30T10:22:11.972Z,98675.47
2022-11-30T10:25:27.270Z,98673.78
2022-11-30T10:28:48.830Z,98676.25
2022-11-30T10:31:57.329Z,98660.78
2022-11-30T10:35:16.954Z,98669.66
2022-11-30T10:38:32.529Z,98662.72
2022-11-30T10:41:41.571Z,98665.22
2022-11-30T10:44:46.939Z,98656.06
2022-11-30T10:47:53.817Z,98656.59
2022-11-30T10:50:55.814Z,98654.53
2022-11-30T10:53:58.390Z,98652.53
2022-11-30T10:57:02.734Z,98650.09
2022-11-30T11:00:07.299Z,98647.69
2022-11-30T11:03:26.318Z,98640.97
2022-11-30T11:06:28.588Z,98638.94
2022-11-30T11:09:46.995Z,98631.72
2022-11-30T11:12:52.169Z,98634.06
2022-11-30T11:15:59.638Z,98626.09
2022-11-30T11:19:01.951Z,98628.22
2022-11-30T11:22:25.352Z,98640.28
2022-11-30T11:25:37.468Z,98644.19
2022-11-30T11:28:45.089Z,98641.97
2022-11-30T11:31:47.824Z,98635.16
2022-11-30T11:34:51.510Z,98638.81
2022-11-30T11:37:53.921Z,98637.88
2022-11-30T11:41:07.668Z,98632.69
2022-11-30T11:44:09.552Z,98631.00
2022-11-30T11:47:24.595Z,98637.41
2022-11-30T11:51:04.903Z,98634.16
2022-11-30T11:53:56.837Z,98638.22
2022-11-30T11:56:59.121Z,98631.19
2022-11-30T12:00:18.113Z,98634.69
2022-11-30T12:03:26.610Z,98630.25
2022-11-30T12:06:30.078Z,98625.41
2022-11-30T12:09:37.227Z,98629.84
2022-11-30T12:12:46.009Z,98636.06
2022-11-30T12:15:53.270Z,98633.09
2022-11-30T12:19:15.009Z,98638.78
2022-11-30T12:22:36.003Z,98636.69
2022-11-30T12:25:46.678Z,98640.44
2022-11-30T12:29:03.954Z,98636.31
2022-11-30T12:32:27.764Z,98628.53
2022-11-30T12:35:53.989Z,98628.00
2022-11-30T12:38:59.698Z,98627.16
2022-11-30T12:42:12.103Z,98626.63
2022-11-30T12:45:24.409Z,98628.50
2022-11-30T12:48:38.774Z,98637.41
2022-11-30T12:52:10.045Z,98630.72
2022-11-30T12:55:27.181Z,98620.84
2022-11-30T12:58:38.293Z,98630.03
2022-11-30T13:01:40.585Z,98622.41
2022-11-30T13:04:43.960Z,98620.44
2022-11-30T13:08:14.057Z,98622.31
2022-11-30T13:11:21.270Z,98619.38
2022-11-30T13:14:23.341Z,98622.41
2022-11-30T13:17:26.959Z,98618.16
2022-11-30T13:20:41.432Z,98610.44
2022-11-30T13:24:13.941Z,98616.84
2022-11-30T13:27:28.618Z,98616.78
2022-11-30T13:30:45.351Z,98611.56
2022-11-30T13:33:48.461Z,98611.56
2022-11-30T13:36:50.451Z,98600.63
2022-11-30T13:39:59.548Z,98598.50
2022-11-30T13:43:01.683Z,98593.75
2022-11-30T13:46:24.323Z,98601.38
2022-11-30T13:49:35.793Z,98586.50
2022-11-30T13:53:17.377Z,98595.03
2022-11-30T13:56:19.518Z,98594.78
2022-11-30T13:59:24.614Z,98587.09
2022-11-30T14:02:32.906Z,98585.22
2022-11-30T14:06:00.321Z,98583.16
2022-11-30T14:09:02.294Z,98578.16
2022-11-30T14:12:37.362Z,98589.13
2022-11-30T14:15:39.694Z,98590.59
2022-11-30T14:18:43.863Z,98587.91
2022-11-30T14:21:45.916Z,98586.69
2022-11-30T14:24:49.407Z,98589.81
2022-11-30T14:27:53.358Z,98586.50
2022-11-30T14:30:56.284Z,98585.00
2022-11-30T14:34:03.141Z,98578.78
2022-11-30T14:37:26.524Z,98582.28
2022-11-30T14:40:31.065Z,98580.63
2022-11-30T14:43:33.395Z,98570.41
2022-11-30T14:46:36.149Z,98571.44
2022-11-30T14:49:46.154Z,98572.28
2022-11-30T14:52:51.222Z,98561.88
2022-11-30T14:56:05.882Z,98568.00
2022-11-30T14:59:26.503Z,98570.00
2022-11-30T15:02:36.474Z,98570.25
2022-11-30T15:05:41.840Z,98572.38
2022-11-30T15:08:50.510Z,98569.03
2022-11-30T15:11:53.451Z,98576.31
2022-11-30T15:15:14.248Z,98578.59
2022-11-30T15:18:19.273Z,98577.75
2022-11-30T15:21:24.483Z,98579.41
2022-11-30T15:24:29.690Z,98579.78
2022-11-30T15:27:32.360Z,98583.84
2022-11-30T15:30:39.328Z,98589.22
2022-11-30T15:33:43.862Z,98583.28
2022-11-30T15:36:46.445Z,98585.88
2022-11-30T15:39:52.692Z,98588.06
2022-11-30T15:42:54.927Z,98585.66
2022-11-30T15:45:59.520Z,98590.75
2022-11-30T15:49:25.750Z,98590.41
2022-11-30T15:52:30.122Z,98601.19
2022-11-30T15:55:45.598Z,98604.94
2022-11-30T15:59:05.383Z,98601.13
2022-11-30T16:02:25.625Z,98607.78
2022-11-30T16:05:28.232Z,98597.75
2022-11-30T16:08:30.254Z,98593.25
2022-11-30T16:11:34.112Z,98601.16
2022-11-30T16:14:36.088Z,98592.91
2022-11-30T16:17:37.973Z,98603.78
2022-11-30T16:20:42.125Z,98602.31
2022-11-30T16:23:44.973Z,98598.78
2022-11-30T16:26:51.625Z,98600.66
2022-11-30T16:29:55.340Z,98600.19
2022-11-30T16:33:00.078Z,98593.50
2022-11-30T16:36:10.017Z,98602.97
2022-11-30T16:39:13.077Z,98597.22
2022-11-30T16:42:15.758Z,98599.66
2022-11-30T16:45:22.912Z,98602.44
2022-11-30T16:48:24.822Z,98595.03
2022-11-30T16:51:27.425Z,98598.75
2022-11-30T16:54:32.615Z,98600.47
2022-11-30T16:57:34.720Z,98602.06
2022-11-30T17:00:39.992Z,98597.88
2022-11-30T17:03:47.366Z,98602.78
2022-11-30T17:06:51.129Z,98594.09
2022-11-30T17:09:54.091Z,98599.66
2022-11-30T17:12:56.689Z,98600.66
2022-11-30T17:15:58.686Z,98596.78
2022-11-30T17:19:01.704Z,98609.38
2022-11-30T17:22:03.688Z,98601.59
2022-11-30T17:25:09.057Z,98609.66
2022-11-30T17:28:11.097Z,98608.75
2022-11-30T17:31:13.599Z,98603.56
2022-11-30T17:34:15.843Z,98609.09
2022-11-30T17:37:17.826Z,98609.84
2022-11-30T17:40:20.336Z,98601.22
2022-11-30T17:43:23.053Z,98603.25
2022-11-30T17:46:25.023Z,98607.41
2022-11-30T17:49:27.446Z,98605.94
2022-11-30T17:52:29.692Z,98610.75
2022-11-30T17:55:33.562Z,98617.97
2022-11-30T17:58:43.485Z,98608.53
2022-11-30T18:01:46.400Z,98603.88
2022-11-30T18:04:48.617Z,98603.16
2022-11-30T18:07:50.976Z,98601.50
2022-11-30T18:10:53.204Z,98604.81
2022-11-30T18:13:57.485Z,98600.34
2022-11-30T18:16:59.418Z,98607.88
2022-11-30T18:20:01.397Z,98615.38
2022-11-30T18:23:03.479Z,98608.88
2022-11-30T18:26:07.683Z,98614.91
2022-11-30T18:29:10.271Z,98613.88
2022-11-30T18:32:13.121Z,98611.66
2022-11-30T18:35:16.185Z,98621.38
2022-11-30T18:38:18.992Z,98629.31
2022-11-30T18:41:21.614Z,98626.69
2022-11-30T18:44:23.862Z,98628.16
2022-11-30T18:47:26.438Z,98632.44
2022-11-30T18:50:30.065Z,98623.56
2022-11-30T18:53:32.175Z,98633.28
2022-11-30T18:56:37.998Z,98624.47
2022-11-30T18:59:40.322Z,98623.56
2022-11-30T19:02:42.648Z,98629.81
2022-11-30T19:05:46.364Z,98626.03
2022-11-30T19:08:48.599Z,98626.69
2022-11-30T19:11:51.402Z,98631.91
2022-11-30T19:14:54.454Z,98623.38
2022-11-30T19:17:57.912Z,98624.22
2022-11-30T19:21:01.644Z,98627.06
2022-11-30T19:24:04.789Z,98629.13
2022-11-30T19:27:07.406Z,98630.22
2022-11-30T19:30:10.815Z,98639.69
2022-11-30T19:33:14.380Z,98641.38
2022-11-30T19:36:22.485Z,98635.31
2022-11-30T19:39:24.861Z,98643.28
2022-11-30T19:42:30.624Z,98635.13
2022-11-30T19:45:35.001Z,98644.03
2022-11-30T19:48:38.362Z,98643.38
2022-11-30T19:51:41.315Z,98645.09
2022-11-30T19:54:44.332Z,98645.38
2022-11-30T19:57:47.070Z,98648.91
2022-11-30T20:00:50.339Z,98652.78
2022-11-30T20:03:54.244Z,98655.38
2022-11-30T20:06:56.377Z,98661.47
2022-11-30T20:09:59.264Z,98645.91
2022-11-30T20:13:01.532Z,98656.63
2022-11-30T20:16:15.357Z,98653.13
2022-11-30T20:19:18.140Z,98659.59
2022-11-30T20:22:20.564Z,98649.78
2022-11-30T20:25:23.093Z,98642.91
2022-11-30T20:28:25.654Z,98646.88
2022-11-30T20:31:29.211Z,98641.34
2022-11-30T20:34:35.236Z,98654.09
2022-11-30T20:37:39.271Z,98643.22
2022-11-30T20:40:47.003Z,98655.94
2022-11-30T20:43:49.849Z,98645.06
2022-11-30T20:46:52.037Z,98636.91
2022-11-30T20:49:54.480Z,98644.75
2022-11-30T20:52:58.742Z,98639.72
2022-11-30T20:56:01.464Z,98632.63
2022-11-30T20:59:06.482Z,98632.88
2022-11-30T21:02:10.579Z,98636.47
2022-11-30T21:05:13.133Z,98640.81
2022-11-30T21:08:15.268Z,98639.38
2022-11-30T21:11:20.102Z,98640.72
2022-11-30T21:14:22.455Z,98635.47
2022-11-30T21:17:25.475Z,98636.97
2022-11-30T21:20:27.515Z,98635.38
2022-11-30T21:23:29.883Z,98636.31
2022-11-30T21:26:38.198Z,98636.31
2022-11-30T21:29:40.880Z,98648.00
2022-11-30T21:32:43.174Z,98633.53
2022-11-30T21:35:45.392Z,98641.66
2022-11-30T21:38:47.726Z,98640.56
2022-11-30T21:41:49.650Z,98632.28
2022-11-30T21:44:52.494Z,98635.97
2022-11-30T21:47:55.040Z,98643.16
2022-11-30T21:51:18.193Z,98628.34
2022-11-30T21:54:20.634Z,98618.25
2022-11-30T21:57:23.224Z,98627.34
2022-11-30T22:00:25.662Z,98622.34
2022-11-30T22:03:27.985Z,98628.25
2022-11-30T22:06:35.047Z,98626.44
2022-11-30T22:09:37.206Z,98618.97
2022-11-30T22:12:41.404Z,98629.44
2022-11-30T22:15:43.459Z,98623.41
2022-11-30T22:18:46.861Z,98622.41
2022-11-30T22:21:50.412Z,98614.56
2022-11-30T22:24:52.967Z,98619.97
2022-11-30T22:27:55.225Z,98617.97
2022-11-30T22:30:57.292Z,98621.78
2022-11-30T22:33:59.707Z,98616.38
2022-11-30T22:37:01.702Z,98618.19
2022-11-30T22:40:04.705Z,98609.69
2022-11-30T22:43:07.193Z,98612.09
2022-11-30T22:46:14.736Z,98608.47
2022-11-30T22:49:21.180Z,98612.09
2022-11-30T22:52:42.304Z,98609.69
2022-11-30T22:55:48.265Z,98607.09
2022-11-30T22:58:54.059Z,98603.16
2022-11-30T23:01:56.368Z,98614.56
2022-11-30T23:04:58.394Z,98604.19
2022-11-30T23:08:00.534Z,98600.50
2022-11-30T23:11:09.369Z,98601.50
2022-11-30T23:14:12.937Z,98601.66
2022-11-30T23:17:17.424Z,98603.88
2022-11-30T23:20:20.257Z,98603.59
2022-11-30T23:23:23.366Z,98594.16
2022-11-30T23:26:27.692Z,98608.88
2022-11-30T23:29:30.589Z,98598.19
2022-11-30T23:32:32.432Z,98599.03
2022-11-30T23:35:34.572Z,98597.75
2022-11-30T23:38:36.704Z,98593.94
2022-11-30T23:41:38.781Z,98598.63
2022-11-30T23:44:40.944Z,98612.63
2022-11-30T23:47:42.686Z,98613.66
2022-11-30T23:50:44.824Z,98619.91
2022-11-30T23:53:46.584Z,98621.91
2022-11-30T23:56:48.704Z,98625.75
2022-11-30T23:59:50.718Z,98615.91
